KWWD/WWD METAR and TAF weather

Enter ICAO airport designator
Station Type Date Time Source
KWWD METAR 2020/09/22 15:56 UTC NOAA

KWWD 221556Z AUTO 31008KT 10SM CLR 18/07 A3014 RMK AO2 SLP208 T01780072


Station Type Date Time Source
KWWD Decoded METAR 2020/09/22 15:56 UTC NOAA

Wildwood, Cape May County Airport, NJ, United States (KWWD) 39-01N 074-55W
Sep 22, 2020 - 11:56 AM EDT / 2020.09.22 1556 UTC
Wind: from the NW (310 degrees) at 9 MPH (8 KT):0
Visibility: 10 mile(s):0
Sky conditions: clear
Temperature: 64.0 F (17.8 C)
Dew Point: 45.0 F (7.2 C)
Relative Humidity: 49%
Pressure (altimeter): 30.14 in. Hg (1020 hPa)
ob: KWWD 221556Z AUTO 31008KT 10SM CLR 18/07 A3014 RMK AO2 SLP208 T01780072
cycle: 16

Station Type Date Time Source
KWWD TAF UTC NOAA

Error!

Example: see airport list